sensor_id;sensor_type;location;lat;lon;timestamp;temperature;humidity
16315;DHT22;8266;52.150;4.768;2022-12-18T00:01:59;0.50;99.90
16315;DHT22;8266;52.150;4.768;2022-12-18T00:04:26;0.50;99.90
16315;DHT22;8266;52.150;4.768;2022-12-18T00:06:54;0.50;99.90
16315;DHT22;8266;52.150;4.768;2022-12-18T00:09:21;0.50;99.90
16315;DHT22;8266;52.150;4.768;2022-12-18T00:11:48;0.50;99.90
16315;DHT22;8266;52.150;4.768;2022-12-18T00:14:16;0.40;99.90
16315;DHT22;8266;52.150;4.768;2022-12-18T00:16:44;0.40;99.90
16315;DHT22;8266;52.150;4.768;2022-12-18T00:19:12;0.40;99.90
16315;DHT22;8266;52.150;4.768;2022-12-18T00:21:41;0.40;99.90
16315;DHT22;8266;52.150;4.768;2022-12-18T00:24:08;0.40;99.90
16315;DHT22;8266;52.150;4.768;2022-12-18T00:26:37;0.40;99.90
16315;DHT22;8266;52.150;4.768;2022-12-18T00:29:07;0.40;99.90
16315;DHT22;8266;52.150;4.768;2022-12-18T00:31:37;0.40;99.90
16315;DHT22;8266;52.150;4.768;2022-12-18T00:34:04;0.40;99.90
16315;DHT22;8266;52.150;4.768;2022-12-18T00:36:33;0.30;99.90
16315;DHT22;8266;52.150;4.768;2022-12-18T00:39:02;0.30;99.90
16315;DHT22;8266;52.150;4.768;2022-12-18T00:41:30;0.20;99.90
16315;DHT22;8266;52.150;4.768;2022-12-18T00:44:15;0.20;99.90
16315;DHT22;8266;52.150;4.768;2022-12-18T00:46:44;0.20;99.90
16315;DHT22;8266;52.150;4.768;2022-12-18T00:49:11;0.10;99.90
16315;DHT22;8266;52.150;4.768;2022-12-18T00:51:39;0.10;99.90
16315;DHT22;8266;52.150;4.768;2022-12-18T00:54:06;0.10;99.90
16315;DHT22;8266;52.150;4.768;2022-12-18T00:56:35;0.10;99.90
16315;DHT22;8266;52.150;4.768;2022-12-18T00:59:02;0.10;99.90
16315;DHT22;8266;52.150;4.768;2022-12-18T01:01:30;0.00;99.90
16315;DHT22;8266;52.150;4.768;2022-12-18T01:03:59;0.00;99.90
16315;DHT22;8266;52.150;4.768;2022-12-18T01:06:26;0.00;99.90
16315;DHT22;8266;52.150;4.768;2022-12-18T01:08:53;0.00;99.90
16315;DHT22;8266;52.150;4.768;2022-12-18T01:11:22;0.00;99.90
16315;DHT22;8266;52.150;4.768;2022-12-18T01:13:49;-0.10;99.90
16315;DHT22;8266;52.150;4.768;2022-12-18T01:16:18;-0.10;99.90
16315;DHT22;8266;52.150;4.768;2022-12-18T01:18:45;-0.10;99.90
16315;DHT22;8266;52.150;4.768;2022-12-18T01:21:15;-0.10;99.90
16315;DHT22;8266;52.150;4.768;2022-12-18T01:23:42;-0.10;99.90
16315;DHT22;8266;52.150;4.768;2022-12-18T01:26:10;-0.10;99.90
16315;DHT22;8266;52.150;4.768;2022-12-18T01:28:38;0.00;99.90
16315;DHT22;8266;52.150;4.768;2022-12-18T01:31:14;0.00;99.90
16315;DHT22;8266;52.150;4.768;2022-12-18T01:33:41;-0.10;99.90
16315;DHT22;8266;52.150;4.768;2022-12-18T01:36:08;-0.10;99.90
16315;DHT22;8266;52.150;4.768;2022-12-18T01:38:42;-0.10;99.90
16315;DHT22;8266;52.150;4.768;2022-12-18T01:41:09;-0.10;99.90
16315;DHT22;8266;52.150;4.768;2022-12-18T01:43:48;-0.10;99.90
16315;DHT22;8266;52.150;4.768;2022-12-18T01:46:15;-0.10;99.90
16315;DHT22;8266;52.150;4.768;2022-12-18T01:48:43;-0.10;99.90
16315;DHT22;8266;52.150;4.768;2022-12-18T01:51:11;0.00;99.90
16315;DHT22;8266;52.150;4.768;2022-12-18T01:53:42;-0.20;99.90
16315;DHT22;8266;52.150;4.768;2022-12-18T01:56:12;-0.10;99.90
16315;DHT22;8266;52.150;4.768;2022-12-18T01:58:50;-0.20;99.90
16315;DHT22;8266;52.150;4.768;2022-12-18T02:01:20;-0.20;99.90
16315;DHT22;8266;52.150;4.768;2022-12-18T02:03:48;-0.20;99.90
16315;DHT22;8266;52.150;4.768;2022-12-18T02:06:17;-0.20;99.90
16315;DHT22;8266;52.150;4.768;2022-12-18T02:08:58;-0.20;99.90
16315;DHT22;8266;52.150;4.768;2022-12-18T02:11:37;-0.30;99.90
16315;DHT22;8266;52.150;4.768;2022-12-18T02:14:15;-0.30;99.90
16315;DHT22;8266;52.150;4.768;2022-12-18T02:16:45;-0.30;99.90
16315;DHT22;8266;52.150;4.768;2022-12-18T02:19:27;-0.30;99.90
16315;DHT22;8266;52.150;4.768;2022-12-18T02:22:11;-0.30;99.90
16315;DHT22;8266;52.150;4.768;2022-12-18T02:24:53;-0.30;99.90
16315;DHT22;8266;52.150;4.768;2022-12-18T02:27:23;-0.30;99.90
16315;DHT22;8266;52.150;4.768;2022-12-18T02:29:52;-0.30;99.90
16315;DHT22;8266;52.150;4.768;2022-12-18T02:32:24;-0.30;99.90
16315;DHT22;8266;52.150;4.768;2022-12-18T02:34:54;-0.40;99.90
16315;DHT22;8266;52.150;4.768;2022-12-18T02:37:23;-0.40;99.90
16315;DHT22;8266;52.150;4.768;2022-12-18T02:39:54;-0.40;99.90
16315;DHT22;8266;52.150;4.768;2022-12-18T02:42:23;-0.40;99.90
16315;DHT22;8266;52.150;4.768;2022-12-18T02:44:51;-0.50;99.90
16315;DHT22;8266;52.150;4.768;2022-12-18T02:47:20;-0.50;99.90
16315;DHT22;8266;52.150;4.768;2022-12-18T02:49:54;-0.50;99.90
16315;DHT22;8266;52.150;4.768;2022-12-18T02:52:28;-0.50;99.90
16315;DHT22;8266;52.150;4.768;2022-12-18T02:55:03;-0.50;99.90
16315;DHT22;8266;52.150;4.768;2022-12-18T02:57:39;-0.60;99.90
16315;DHT22;8266;52.150;4.768;2022-12-18T03:00:11;-0.60;99.90
16315;DHT22;8266;52.150;4.768;2022-12-18T03:02:41;-0.70;99.90
16315;DHT22;8266;52.150;4.768;2022-12-18T03:05:15;-0.70;99.90
16315;DHT22;8266;52.150;4.768;2022-12-18T03:07:46;-0.70;99.90
16315;DHT22;8266;52.150;4.768;2022-12-18T03:10:19;-0.70;99.90
16315;DHT22;8266;52.150;4.768;2022-12-18T03:12:52;-0.80;99.90
16315;DHT22;8266;52.150;4.768;2022-12-18T03:15:24;-0.80;99.90
16315;DHT22;8266;52.150;4.768;2022-12-18T03:17:56;-0.90;99.90
16315;DHT22;8266;52.150;4.768;2022-12-18T03:20:25;-0.90;99.90
16315;DHT22;8266;52.150;4.768;2022-12-18T03:22:57;-0.90;99.90
16315;DHT22;8266;52.150;4.768;2022-12-18T03:25:28;-0.90;99.90
16315;DHT22;8266;52.150;4.768;2022-12-18T03:27:59;-0.90;99.90
16315;DHT22;8266;52.150;4.768;2022-12-18T03:30:28;-0.90;99.90
16315;DHT22;8266;52.150;4.768;2022-12-18T03:33:02;-0.90;99.90
16315;DHT22;8266;52.150;4.768;2022-12-18T03:35:35;-1.00;99.90
16315;DHT22;8266;52.150;4.768;2022-12-18T03:38:03;-1.00;99.90
16315;DHT22;8266;52.150;4.768;2022-12-18T03:40:34;-1.00;99.90
16315;DHT22;8266;52.150;4.768;2022-12-18T03:43:08;-1.00;99.90
16315;DHT22;8266;52.150;4.768;2022-12-18T03:45:41;-1.00;99.90
16315;DHT22;8266;52.150;4.768;2022-12-18T03:48:17;-1.00;99.90
16315;DHT22;8266;52.150;4.768;2022-12-18T03:50:49;-1.00;99.90
16315;DHT22;8266;52.150;4.768;2022-12-18T03:53:27;-1.00;99.90
16315;DHT22;8266;52.150;4.768;2022-12-18T03:55:56;-1.00;99.90
16315;DHT22;8266;52.150;4.768;2022-12-18T03:58:26;-1.00;99.90
16315;DHT22;8266;52.150;4.768;2022-12-18T04:00:56;-1.00;99.90
16315;DHT22;8266;52.150;4.768;2022-12-18T04:03:26;-1.10;99.90
16315;DHT22;8266;52.150;4.768;2022-12-18T04:05:55;-1.10;99.90
16315;DHT22;8266;52.150;4.768;2022-12-18T04:08:25;-1.10;99.90
16315;DHT22;8266;52.150;4.768;2022-12-18T04:10:52;-1.10;99.90
16315;DHT22;8266;52.150;4.768;2022-12-18T04:13:22;-1.10;99.90
16315;DHT22;8266;52.150;4.768;2022-12-18T04:15:51;-1.10;99.90
16315;DHT22;8266;52.150;4.768;2022-12-18T04:18:18;-1.10;99.90
16315;DHT22;8266;52.150;4.768;2022-12-18T04:20:45;-1.10;99.90
16315;DHT22;8266;52.150;4.768;2022-12-18T04:23:12;-1.10;99.90
16315;DHT22;8266;52.150;4.768;2022-12-18T04:25:39;-1.10;99.90
16315;DHT22;8266;52.150;4.768;2022-12-18T04:28:06;-1.10;99.90
16315;DHT22;8266;52.150;4.768;2022-12-18T04:30:33;-1.10;99.90
16315;DHT22;8266;52.150;4.768;2022-12-18T04:33:01;-1.10;99.90
16315;DHT22;8266;52.150;4.768;2022-12-18T04:35:28;-1.20;99.90
16315;DHT22;8266;52.150;4.768;2022-12-18T04:37:55;-1.20;99.90
16315;DHT22;8266;52.150;4.768;2022-12-18T04:40:22;-1.20;99.90
16315;DHT22;8266;52.150;4.768;2022-12-18T04:42:49;-1.20;99.90
16315;DHT22;8266;52.150;4.768;2022-12-18T04:45:16;-1.20;99.90
16315;DHT22;8266;52.150;4.768;2022-12-18T04:47:43;-1.30;99.90
16315;DHT22;8266;52.150;4.768;2022-12-18T04:50:11;-1.30;99.90
16315;DHT22;8266;52.150;4.768;2022-12-18T04:52:38;-1.30;99.90
16315;DHT22;8266;52.150;4.768;2022-12-18T04:55:06;-1.40;99.90
16315;DHT22;8266;52.150;4.768;2022-12-18T04:57:33;-1.40;99.90
16315;DHT22;8266;52.150;4.768;2022-12-18T05:00:00;-1.40;99.90
16315;DHT22;8266;52.150;4.768;2022-12-18T05:02:26;-1.40;99.90
16315;DHT22;8266;52.150;4.768;2022-12-18T05:04:53;-1.50;99.90
16315;DHT22;8266;52.150;4.768;2022-12-18T05:07:22;-1.40;99.90
16315;DHT22;8266;52.150;4.768;2022-12-18T05:09:49;-1.50;99.90
16315;DHT22;8266;52.150;4.768;2022-12-18T05:12:16;-1.50;99.90
16315;DHT22;8266;52.150;4.768;2022-12-18T05:14:43;-1.60;99.90
16315;DHT22;8266;52.150;4.768;2022-12-18T05:17:10;-1.60;99.90
16315;DHT22;8266;52.150;4.768;2022-12-18T05:19:37;-1.60;99.90
16315;DHT22;8266;52.150;4.768;2022-12-18T05:22:04;-1.60;99.90
16315;DHT22;8266;52.150;4.768;2022-12-18T05:24:32;-1.60;99.90
16315;DHT22;8266;52.150;4.768;2022-12-18T05:26:59;-1.60;99.90
16315;DHT22;8266;52.150;4.768;2022-12-18T05:29:26;-1.60;99.90
16315;DHT22;8266;52.150;4.768;2022-12-18T05:31:53;-1.60;99.90
16315;DHT22;8266;52.150;4.768;2022-12-18T05:34:20;-1.60;99.90
16315;DHT22;8266;52.150;4.768;2022-12-18T05:36:47;-1.70;99.90
16315;DHT22;8266;52.150;4.768;2022-12-18T05:39:14;-1.70;99.90
16315;DHT22;8266;52.150;4.768;2022-12-18T05:41:42;-1.70;99.90
16315;DHT22;8266;52.150;4.768;2022-12-18T05:44:09;-1.70;99.90
16315;DHT22;8266;52.150;4.768;2022-12-18T05:46:36;-1.70;99.90
16315;DHT22;8266;52.150;4.768;2022-12-18T05:49:03;-1.70;99.90
16315;DHT22;8266;52.150;4.768;2022-12-18T05:51:30;-1.70;99.90
16315;DHT22;8266;52.150;4.768;2022-12-18T05:53:57;-1.70;99.90
16315;DHT22;8266;52.150;4.768;2022-12-18T05:56:24;-1.80;99.90
16315;DHT22;8266;52.150;4.768;2022-12-18T05:58:53;-1.80;99.90
16315;DHT22;8266;52.150;4.768;2022-12-18T06:01:23;-1.80;99.90
16315;DHT22;8266;52.150;4.768;2022-12-18T06:03:50;-1.80;99.90
16315;DHT22;8266;52.150;4.768;2022-12-18T06:06:19;-1.90;99.90
16315;DHT22;8266;52.150;4.768;2022-12-18T06:08:48;-1.90;99.90
16315;DHT22;8266;52.150;4.768;2022-12-18T06:11:17;-1.90;99.90
16315;DHT22;8266;52.150;4.768;2022-12-18T06:13:44;-2.00;99.90
16315;DHT22;8266;52.150;4.768;2022-12-18T06:16:13;-2.00;99.90
16315;DHT22;8266;52.150;4.768;2022-12-18T06:18:40;-2.10;99.90
16315;DHT22;8266;52.150;4.768;2022-12-18T06:21:07;-2.10;99.90
16315;DHT22;8266;52.150;4.768;2022-12-18T06:23:34;-2.10;99.90
16315;DHT22;8266;52.150;4.768;2022-12-18T06:26:04;-2.20;99.90
16315;DHT22;8266;52.150;4.768;2022-12-18T06:28:32;-2.20;99.90
16315;DHT22;8266;52.150;4.768;2022-12-18T06:30:59;-2.20;99.90
16315;DHT22;8266;52.150;4.768;2022-12-18T06:33:28;-2.20;99.90
16315;DHT22;8266;52.150;4.768;2022-12-18T06:35:59;-2.20;99.90
16315;DHT22;8266;52.150;4.768;2022-12-18T06:38:26;-2.30;99.90
16315;DHT22;8266;52.150;4.768;2022-12-18T06:40:53;-2.30;99.90
16315;DHT22;8266;52.150;4.768;2022-12-18T06:43:20;-2.30;99.90
16315;DHT22;8266;52.150;4.768;2022-12-18T06:45:47;-2.30;99.90
16315;DHT22;8266;52.150;4.768;2022-12-18T06:48:18;-2.40;99.90
16315;DHT22;8266;52.150;4.768;2022-12-18T06:50:47;-2.30;99.90
16315;DHT22;8266;52.150;4.768;2022-12-18T06:53:14;-2.40;99.90
16315;DHT22;8266;52.150;4.768;2022-12-18T06:55:41;-2.40;99.90
16315;DHT22;8266;52.150;4.768;2022-12-18T06:58:08;-2.40;99.90
16315;DHT22;8266;52.150;4.768;2022-12-18T07:00:35;-2.50;99.90
16315;DHT22;8266;52.150;4.768;2022-12-18T07:03:02;-2.50;99.90
16315;DHT22;8266;52.150;4.768;2022-12-18T07:05:29;-2.50;99.90
16315;DHT22;8266;52.150;4.768;2022-12-18T07:07:57;-2.50;99.90
16315;DHT22;8266;52.150;4.768;2022-12-18T07:10:25;-2.50;99.90
16315;DHT22;8266;52.150;4.768;2022-12-18T07:12:52;-2.60;99.90
16315;DHT22;8266;52.150;4.768;2022-12-18T07:15:19;-2.60;99.90
16315;DHT22;8266;52.150;4.768;2022-12-18T07:17:46;-2.60;99.90
16315;DHT22;8266;52.150;4.768;2022-12-18T07:20:13;-2.60;99.90
16315;DHT22;8266;52.150;4.768;2022-12-18T07:22:40;-2.60;99.90
16315;DHT22;8266;52.150;4.768;2022-12-18T07:25:09;-2.70;99.90
16315;DHT22;8266;52.150;4.768;2022-12-18T07:27:36;-2.70;99.90
16315;DHT22;8266;52.150;4.768;2022-12-18T07:30:03;-2.70;99.90
16315;DHT22;8266;52.150;4.768;2022-12-18T07:32:30;-2.70;99.90
16315;DHT22;8266;52.150;4.768;2022-12-18T07:34:57;-2.70;99.90
16315;DHT22;8266;52.150;4.768;2022-12-18T07:37:24;-2.70;99.90
16315;DHT22;8266;52.150;4.768;2022-12-18T07:39:51;-2.70;99.90
16315;DHT22;8266;52.150;4.768;2022-12-18T07:42:19;-2.70;99.90
16315;DHT22;8266;52.150;4.768;2022-12-18T07:44:58;-2.70;99.90
16315;DHT22;8266;52.150;4.768;2022-12-18T07:47:25;-2.70;99.90
16315;DHT22;8266;52.150;4.768;2022-12-18T07:49:52;-2.70;99.90
16315;DHT22;8266;52.150;4.768;2022-12-18T07:52:19;-2.70;99.90
16315;DHT22;8266;52.150;4.768;2022-12-18T07:54:47;-2.70;99.90
16315;DHT22;8266;52.150;4.768;2022-12-18T07:57:14;-2.70;99.90
16315;DHT22;8266;52.150;4.768;2022-12-18T07:59:43;-2.70;99.90
16315;DHT22;8266;52.150;4.768;2022-12-18T08:02:10;-2.60;99.90
16315;DHT22;8266;52.150;4.768;2022-12-18T08:04:37;-2.60;99.90
16315;DHT22;8266;52.150;4.768;2022-12-18T08:07:04;-2.60;99.90
16315;DHT22;8266;52.150;4.768;2022-12-18T08:09:33;-2.60;99.90
16315;DHT22;8266;52.150;4.768;2022-12-18T08:12:00;-2.50;99.90
16315;DHT22;8266;52.150;4.768;2022-12-18T08:14:27;-2.50;99.90
16315;DHT22;8266;52.150;4.768;2022-12-18T08:16:55;-2.50;99.90
16315;DHT22;8266;52.150;4.768;2022-12-18T08:19:23;-2.40;99.90
16315;DHT22;8266;52.150;4.768;2022-12-18T08:21:50;-2.40;99.90
16315;DHT22;8266;52.150;4.768;2022-12-18T08:24:17;-2.30;99.90
16315;DHT22;8266;52.150;4.768;2022-12-18T08:26:44;-2.30;99.90
16315;DHT22;8266;52.150;4.768;2022-12-18T08:29:12;-2.30;99.90
16315;DHT22;8266;52.150;4.768;2022-12-18T08:31:41;-2.20;99.90
16315;DHT22;8266;52.150;4.768;2022-12-18T08:34:11;-2.20;99.90
16315;DHT22;8266;52.150;4.768;2022-12-18T08:36:38;-2.20;99.90
16315;DHT22;8266;52.150;4.768;2022-12-18T08:39:05;-2.10;99.90
16315;DHT22;8266;52.150;4.768;2022-12-18T08:41:32;-2.00;99.90
16315;DHT22;8266;52.150;4.768;2022-12-18T08:43:59;-2.00;99.90
16315;DHT22;8266;52.150;4.768;2022-12-18T08:46:58;-2.00;99.90
16315;DHT22;8266;52.150;4.768;2022-12-18T08:49:26;-1.90;99.90
16315;DHT22;8266;52.150;4.768;2022-12-18T08:51:54;-1.90;99.90
16315;DHT22;8266;52.150;4.768;2022-12-18T08:54:22;-1.80;99.90
16315;DHT22;8266;52.150;4.768;2022-12-18T08:56:50;-1.80;99.90
16315;DHT22;8266;52.150;4.768;2022-12-18T08:59:17;-1.80;99.90
16315;DHT22;8266;52.150;4.768;2022-12-18T09:01:44;-1.70;99.90
16315;DHT22;8266;52.150;4.768;2022-12-18T09:04:12;-1.70;99.90
16315;DHT22;8266;52.150;4.768;2022-12-18T09:06:40;-1.60;99.90
16315;DHT22;8266;52.150;4.768;2022-12-18T09:09:09;-1.60;99.90
16315;DHT22;8266;52.150;4.768;2022-12-18T09:11:36;-1.50;99.90
16315;DHT22;8266;52.150;4.768;2022-12-18T09:14:03;-1.50;99.90
16315;DHT22;8266;52.150;4.768;2022-12-18T09:16:31;-1.50;99.90
16315;DHT22;8266;52.150;4.768;2022-12-18T09:19:00;-1.50;99.90
16315;DHT22;8266;52.150;4.768;2022-12-18T09:21:28;-1.40;99.90
16315;DHT22;8266;52.150;4.768;2022-12-18T09:23:57;-1.40;99.90
16315;DHT22;8266;52.150;4.768;2022-12-18T09:26:25;-1.40;99.90
16315;DHT22;8266;52.150;4.768;2022-12-18T09:28:52;-1.30;99.90
16315;DHT22;8266;52.150;4.768;2022-12-18T09:31:21;-1.40;99.90
16315;DHT22;8266;52.150;4.768;2022-12-18T09:33:48;-1.30;99.90
16315;DHT22;8266;52.150;4.768;2022-12-18T09:36:16;-1.30;99.90
16315;DHT22;8266;52.150;4.768;2022-12-18T09:38:44;-1.30;99.90
16315;DHT22;8266;52.150;4.768;2022-12-18T09:41:25;-1.30;99.90
16315;DHT22;8266;52.150;4.768;2022-12-18T09:43:58;-1.30;99.90
16315;DHT22;8266;52.150;4.768;2022-12-18T09:46:28;-1.20;99.90
16315;DHT22;8266;52.150;4.768;2022-12-18T09:48:59;-1.20;99.90
16315;DHT22;8266;52.150;4.768;2022-12-18T09:51:28;-1.20;99.90
16315;DHT22;8266;52.150;4.768;2022-12-18T09:53:59;-1.20;99.90
16315;DHT22;8266;52.150;4.768;2022-12-18T09:56:34;-1.20;99.90
16315;DHT22;8266;52.150;4.768;2022-12-18T09:59:03;-1.10;99.90
16315;DHT22;8266;52.150;4.768;2022-12-18T10:01:32;-1.10;99.90
16315;DHT22;8266;52.150;4.768;2022-12-18T10:03:59;-1.10;99.90
16315;DHT22;8266;52.150;4.768;2022-12-18T10:06:29;-1.10;99.90
16315;DHT22;8266;52.150;4.768;2022-12-18T10:09:01;-1.10;99.90
16315;DHT22;8266;52.150;4.768;2022-12-18T10:11:40;-1.00;99.90
16315;DHT22;8266;52.150;4.768;2022-12-18T10:14:12;-1.00;99.90
16315;DHT22;8266;52.150;4.768;2022-12-18T10:16:47;-1.00;99.90
16315;DHT22;8266;52.150;4.768;2022-12-18T10:19:28;-1.00;99.90
16315;DHT22;8266;52.150;4.768;2022-12-18T10:22:02;-0.90;99.90
16315;DHT22;8266;52.150;4.768;2022-12-18T10:24:34;-0.90;99.90
16315;DHT22;8266;52.150;4.768;2022-12-18T10:27:12;-0.90;99.90
16315;DHT22;8266;52.150;4.768;2022-12-18T10:29:41;-0.90;99.90
16315;DHT22;8266;52.150;4.768;2022-12-18T10:32:14;-0.90;99.90
16315;DHT22;8266;52.150;4.768;2022-12-18T10:34:45;-0.90;99.90
16315;DHT22;8266;52.150;4.768;2022-12-18T10:37:15;-0.80;99.90
16315;DHT22;8266;52.150;4.768;2022-12-18T10:39:43;-0.80;99.90
16315;DHT22;8266;52.150;4.768;2022-12-18T10:42:17;-0.80;99.90
16315;DHT22;8266;52.150;4.768;2022-12-18T10:44:46;-0.70;99.90
16315;DHT22;8266;52.150;4.768;2022-12-18T10:47:27;-0.70;99.90
16315;DHT22;8266;52.150;4.768;2022-12-18T10:49:54;-0.60;99.90
16315;DHT22;8266;52.150;4.768;2022-12-18T10:52:23;-0.60;99.90
16315;DHT22;8266;52.150;4.768;2022-12-18T10:54:52;-0.50;99.90
16315;DHT22;8266;52.150;4.768;2022-12-18T10:57:35;-0.50;99.90
16315;DHT22;8266;52.150;4.768;2022-12-18T11:00:25;-0.40;99.90
16315;DHT22;8266;52.150;4.768;2022-12-18T11:02:53;-0.30;99.90
16315;DHT22;8266;52.150;4.768;2022-12-18T11:05:29;-0.30;99.90
16315;DHT22;8266;52.150;4.768;2022-12-18T11:07:57;-0.20;99.90
16315;DHT22;8266;52.150;4.768;2022-12-18T11:10:28;-0.20;99.90
16315;DHT22;8266;52.150;4.768;2022-12-18T11:13:12;-0.20;99.90
16315;DHT22;8266;52.150;4.768;2022-12-18T11:15:43;-0.10;99.90
16315;DHT22;8266;52.150;4.768;2022-12-18T11:18:17;-0.10;99.90
16315;DHT22;8266;52.150;4.768;2022-12-18T11:20:51;0.00;99.90
16315;DHT22;8266;52.150;4.768;2022-12-18T11:23:20;0.00;99.90
16315;DHT22;8266;52.150;4.768;2022-12-18T11:25:52;0.00;99.90
16315;DHT22;8266;52.150;4.768;2022-12-18T11:28:36;0.10;99.90
16315;DHT22;8266;52.150;4.768;2022-12-18T11:31:17;0.10;99.90
16315;DHT22;8266;52.150;4.768;2022-12-18T11:33:46;0.10;99.90
16315;DHT22;8266;52.150;4.768;2022-12-18T11:36:16;0.20;99.90
16315;DHT22;8266;52.150;4.768;2022-12-18T11:38:44;0.20;99.90
16315;DHT22;8266;52.150;4.768;2022-12-18T11:41:19;0.20;99.90
16315;DHT22;8266;52.150;4.768;2022-12-18T11:43:54;0.30;99.90
16315;DHT22;8266;52.150;4.768;2022-12-18T11:46:26;0.30;99.90
16315;DHT22;8266;52.150;4.768;2022-12-18T11:49:01;0.30;99.90
16315;DHT22;8266;52.150;4.768;2022-12-18T11:51:33;0.30;99.90
16315;DHT22;8266;52.150;4.768;2022-12-18T11:54:01;0.40;99.90
16315;DHT22;8266;52.150;4.768;2022-12-18T11:56:36;0.40;99.90
16315;DHT22;8266;52.150;4.768;2022-12-18T11:59:15;0.40;99.90
16315;DHT22;8266;52.150;4.768;2022-12-18T12:01:48;0.50;99.90
16315;DHT22;8266;52.150;4.768;2022-12-18T12:04:42;0.50;99.90
16315;DHT22;8266;52.150;4.768;2022-12-18T12:07:24;0.50;99.90
16315;DHT22;8266;52.150;4.768;2022-12-18T12:10:01;0.60;99.90
16315;DHT22;8266;52.150;4.768;2022-12-18T12:12:38;0.60;99.90
16315;DHT22;8266;52.150;4.768;2022-12-18T12:15:23;0.60;99.90
16315;DHT22;8266;52.150;4.768;2022-12-18T12:17:57;0.70;99.90
16315;DHT22;8266;52.150;4.768;2022-12-18T12:20:33;0.70;99.90
16315;DHT22;8266;52.150;4.768;2022-12-18T12:23:09;0.80;99.90
16315;DHT22;8266;52.150;4.768;2022-12-18T12:25:44;0.80;99.90
16315;DHT22;8266;52.150;4.768;2022-12-18T12:28:32;0.80;99.90
16315;DHT22;8266;52.150;4.768;2022-12-18T12:31:09;0.90;99.90
16315;DHT22;8266;52.150;4.768;2022-12-18T12:33:43;0.90;99.90
16315;DHT22;8266;52.150;4.768;2022-12-18T12:36:21;0.90;99.90
16315;DHT22;8266;52.150;4.768;2022-12-18T12:38:53;0.90;99.90
16315;DHT22;8266;52.150;4.768;2022-12-18T12:41:24;0.90;99.90
16315;DHT22;8266;52.150;4.768;2022-12-18T12:44:14;1.00;99.90
16315;DHT22;8266;52.150;4.768;2022-12-18T12:46:45;1.00;99.90
16315;DHT22;8266;52.150;4.768;2022-12-18T12:49:16;1.00;99.90
16315;DHT22;8266;52.150;4.768;2022-12-18T12:51:47;1.00;99.90
16315;DHT22;8266;52.150;4.768;2022-12-18T12:54:18;1.00;99.90
16315;DHT22;8266;52.150;4.768;2022-12-18T12:56:51;1.10;99.90
16315;DHT22;8266;52.150;4.768;2022-12-18T12:59:27;1.10;99.90
16315;DHT22;8266;52.150;4.768;2022-12-18T13:01:59;1.10;99.90
16315;DHT22;8266;52.150;4.768;2022-12-18T13:04:33;1.10;99.90
16315;DHT22;8266;52.150;4.768;2022-12-18T13:07:06;1.10;99.90
16315;DHT22;8266;52.150;4.768;2022-12-18T13:12:52;1.20;99.90
16315;DHT22;8266;52.150;4.768;2022-12-18T13:15:24;1.20;99.90
16315;DHT22;8266;52.150;4.768;2022-12-18T13:18:12;1.20;99.90
16315;DHT22;8266;52.150;4.768;2022-12-18T13:20:42;1.20;99.90
16315;DHT22;8266;52.150;4.768;2022-12-18T13:23:27;1.20;99.90
16315;DHT22;8266;52.150;4.768;2022-12-18T13:25:55;1.20;99.90
16315;DHT22;8266;52.150;4.768;2022-12-18T13:28:24;1.20;99.90
16315;DHT22;8266;52.150;4.768;2022-12-18T13:31:11;1.20;99.90
16315;DHT22;8266;52.150;4.768;2022-12-18T13:33:44;1.30;99.90
16315;DHT22;8266;52.150;4.768;2022-12-18T13:36:30;1.30;99.90
16315;DHT22;8266;52.150;4.768;2022-12-18T13:39:20;1.30;99.90
16315;DHT22;8266;52.150;4.768;2022-12-18T13:41:49;1.30;99.90
16315;DHT22;8266;52.150;4.768;2022-12-18T13:44:25;1.30;99.90
16315;DHT22;8266;52.150;4.768;2022-12-18T13:46:52;1.30;99.90
16315;DHT22;8266;52.150;4.768;2022-12-18T13:49:24;1.30;99.90
16315;DHT22;8266;52.150;4.768;2022-12-18T13:51:53;1.30;99.90
16315;DHT22;8266;52.150;4.768;2022-12-18T13:54:25;1.40;99.90
16315;DHT22;8266;52.150;4.768;2022-12-18T13:56:55;1.30;99.90
16315;DHT22;8266;52.150;4.768;2022-12-18T13:59:23;1.40;99.90
16315;DHT22;8266;52.150;4.768;2022-12-18T14:01:53;1.40;99.90
16315;DHT22;8266;52.150;4.768;2022-12-18T14:04:25;1.40;99.90
16315;DHT22;8266;52.150;4.768;2022-12-18T14:06:55;1.40;99.90
16315;DHT22;8266;52.150;4.768;2022-12-18T14:09:25;1.40;99.90
16315;DHT22;8266;52.150;4.768;2022-12-18T14:11:53;1.50;99.90
16315;DHT22;8266;52.150;4.768;2022-12-18T14:14:44;1.50;99.90
16315;DHT22;8266;52.150;4.768;2022-12-18T14:17:13;1.50;99.90
16315;DHT22;8266;52.150;4.768;2022-12-18T14:19:43;1.50;99.90
16315;DHT22;8266;52.150;4.768;2022-12-18T14:22:16;1.50;99.90
16315;DHT22;8266;52.150;4.768;2022-12-18T14:24:44;1.50;99.90
16315;DHT22;8266;52.150;4.768;2022-12-18T14:27:22;1.60;99.90
16315;DHT22;8266;52.150;4.768;2022-12-18T14:29:50;1.60;99.90
16315;DHT22;8266;52.150;4.768;2022-12-18T14:32:18;1.60;99.90
16315;DHT22;8266;52.150;4.768;2022-12-18T14:34:48;1.60;99.90
16315;DHT22;8266;52.150;4.768;2022-12-18T14:37:17;1.60;99.90
16315;DHT22;8266;52.150;4.768;2022-12-18T14:39:55;1.60;99.90
16315;DHT22;8266;52.150;4.768;2022-12-18T14:42:23;1.60;99.90
16315;DHT22;8266;52.150;4.768;2022-12-18T14:47:54;1.60;99.90
16315;DHT22;8266;52.150;4.768;2022-12-18T14:50:23;1.60;99.90
16315;DHT22;8266;52.150;4.768;2022-12-18T14:52:50;1.60;99.90
16315;DHT22;8266;52.150;4.768;2022-12-18T14:55:21;1.60;99.90
16315;DHT22;8266;52.150;4.768;2022-12-18T14:57:51;1.60;99.90
16315;DHT22;8266;52.150;4.768;2022-12-18T15:00:21;1.60;99.90
16315;DHT22;8266;52.150;4.768;2022-12-18T15:02:50;1.70;99.90
16315;DHT22;8266;52.150;4.768;2022-12-18T15:05:24;1.70;99.90
16315;DHT22;8266;52.150;4.768;2022-12-18T15:07:52;1.70;99.90
16315;DHT22;8266;52.150;4.768;2022-12-18T15:10:21;1.70;99.90
16315;DHT22;8266;52.150;4.768;2022-12-18T15:12:50;1.70;99.90
16315;DHT22;8266;52.150;4.768;2022-12-18T15:15:46;1.60;99.90
16315;DHT22;8266;52.150;4.768;2022-12-18T15:18:15;1.70;99.90
16315;DHT22;8266;52.150;4.768;2022-12-18T15:20:45;1.70;99.90
16315;DHT22;8266;52.150;4.768;2022-12-18T15:23:16;1.70;99.90
16315;DHT22;8266;52.150;4.768;2022-12-18T15:25:44;1.70;99.90
16315;DHT22;8266;52.150;4.768;2022-12-18T15:28:21;1.70;99.90
16315;DHT22;8266;52.150;4.768;2022-12-18T15:31:17;1.70;99.90
16315;DHT22;8266;52.150;4.768;2022-12-18T15:34:04;1.70;99.90
16315;DHT22;8266;52.150;4.768;2022-12-18T15:36:35;1.80;99.90
16315;DHT22;8266;52.150;4.768;2022-12-18T15:39:02;1.70;99.90
16315;DHT22;8266;52.150;4.768;2022-12-18T15:41:31;1.70;99.90
16315;DHT22;8266;52.150;4.768;2022-12-18T15:43:59;1.70;99.90
16315;DHT22;8266;52.150;4.768;2022-12-18T15:46:26;1.70;99.90
16315;DHT22;8266;52.150;4.768;2022-12-18T15:48:54;1.80;99.90
16315;DHT22;8266;52.150;4.768;2022-12-18T15:51:24;1.80;99.90
16315;DHT22;8266;52.150;4.768;2022-12-18T15:53:56;1.80;99.90
16315;DHT22;8266;52.150;4.768;2022-12-18T15:56:23;1.80;99.90
16315;DHT22;8266;52.150;4.768;2022-12-18T15:59:10;1.80;99.90
16315;DHT22;8266;52.150;4.768;2022-12-18T16:01:39;1.90;99.90
16315;DHT22;8266;52.150;4.768;2022-12-18T16:04:06;1.90;99.90
16315;DHT22;8266;52.150;4.768;2022-12-18T16:06:33;1.90;99.90
16315;DHT22;8266;52.150;4.768;2022-12-18T16:09:01;1.90;99.90
16315;DHT22;8266;52.150;4.768;2022-12-18T16:11:30;1.90;99.90
16315;DHT22;8266;52.150;4.768;2022-12-18T16:14:16;1.90;99.90
16315;DHT22;8266;52.150;4.768;2022-12-18T16:16:44;1.90;99.90
16315;DHT22;8266;52.150;4.768;2022-12-18T16:19:11;1.90;99.90
16315;DHT22;8266;52.150;4.768;2022-12-18T16:21:39;1.90;99.90